createdAt,value
2023-04-21T00:03:04.121Z,2.30
2023-04-21T00:05:32.307Z,2.00
2023-04-21T00:08:41.046Z,2.43
2023-04-21T00:11:12.432Z,2.10
2023-04-21T00:17:20.572Z,2.43
2023-04-21T00:20:20.894Z,2.47
2023-04-21T00:22:51.950Z,2.90
2023-04-21T00:25:20.157Z,2.70
2023-04-21T00:27:47.742Z,2.53
2023-04-21T00:30:28.569Z,2.60
2023-04-21T00:36:37.183Z,2.47
2023-04-21T00:43:30.846Z,2.50
2023-04-21T00:46:28.109Z,2.70
2023-04-21T00:49:19.572Z,2.50
2023-04-21T00:55:29.754Z,1.90
2023-04-21T00:58:04.601Z,2.37
2023-04-21T01:00:59.131Z,2.27
2023-04-21T01:04:17.792Z,3.20
2023-04-21T01:07:29.103Z,3.10
2023-04-21T01:10:02.957Z,2.43
2023-04-21T01:12:34.262Z,2.63
2023-04-21T01:19:31.875Z,2.37
2023-04-21T01:22:11.761Z,2.00
2023-04-21T01:28:27.003Z,2.13
2023-04-21T01:31:31.860Z,2.70
2023-04-21T01:38:29.367Z,1.77
2023-04-21T01:44:37.645Z,2.00
2023-04-21T01:47:49.274Z,1.90
2023-04-21T01:50:34.852Z,2.53
2023-04-21T01:53:05.247Z,1.90
2023-04-21T01:55:36.253Z,2.27
2023-04-21T02:01:52.260Z,2.23
2023-04-21T02:08:07.422Z,2.93
2023-04-21T02:11:04.632Z,2.90
2023-04-21T02:14:14.659Z,2.33
2023-04-21T02:24:16.378Z,3.27
2023-04-21T02:26:44.836Z,2.17
2023-04-21T02:29:12.466Z,2.10
2023-04-21T02:35:28.216Z,2.20
2023-04-21T02:37:58.478Z,2.00
2023-04-21T02:44:07.932Z,2.40
2023-04-21T02:46:47.295Z,2.70
2023-04-21T02:49:51.039Z,1.90
2023-04-21T02:52:40.536Z,2.00
2023-04-21T02:56:04.749Z,2.13
2023-04-21T02:58:39.707Z,2.10
2023-04-21T03:09:06.213Z,2.87
2023-04-21T03:12:31.222Z,1.73
2023-04-21T03:18:45.957Z,1.83
2023-04-21T03:21:13.689Z,1.80
2023-04-21T03:23:41.301Z,2.17
2023-04-21T03:27:02.307Z,2.53
2023-04-21T03:33:25.412Z,1.73
2023-04-21T03:39:40.516Z,1.63
2023-04-21T03:42:24.497Z,2.30
2023-04-21T03:44:52.363Z,2.00
2023-04-21T03:51:03.119Z,2.27
2023-04-21T03:54:24.889Z,2.77
2023-04-21T03:56:54.771Z,1.90
2023-04-21T03:59:46.930Z,2.10
2023-04-21T04:13:35.694Z,2.57
2023-04-21T04:16:03.483Z,1.97
2023-04-21T04:18:39.857Z,2.70
2023-04-21T04:21:14.639Z,1.70
2023-04-21T04:24:19.923Z,2.43
2023-04-21T04:27:49.831Z,2.23
2023-04-21T04:34:17.152Z,1.93
2023-04-21T04:36:48.765Z,1.77
2023-04-21T04:39:30.749Z,1.90
2023-04-21T04:42:37.835Z,2.10
2023-04-21T04:48:54.418Z,2.00
2023-04-21T04:55:08.760Z,2.23
2023-04-21T04:57:57.599Z,1.60
2023-04-21T05:04:46.543Z,1.90
2023-04-21T05:07:45.661Z,2.30
2023-04-21T05:10:26.003Z,2.20
2023-04-21T05:16:15.146Z,1.90
2023-04-21T05:18:46.777Z,2.23
2023-04-21T05:24:25.927Z,1.60
2023-04-21T05:27:38.887Z,2.30
2023-04-21T05:30:36.987Z,1.57
2023-04-21T05:33:13.228Z,2.00
2023-04-21T05:35:56.863Z,2.70
2023-04-21T05:39:06.929Z,2.20
2023-04-21T05:41:43.463Z,2.10
2023-04-21T05:44:53.268Z,2.27
2023-04-21T05:47:47.666Z,2.60
2023-04-21T05:50:37.171Z,2.07
2023-04-21T05:59:36.726Z,2.13
2023-04-21T06:02:10.679Z,2.17
2023-04-21T06:05:12.958Z,2.20
2023-04-21T06:08:15.569Z,2.77
2023-04-21T06:14:49.835Z,2.77
2023-04-21T06:17:32.769Z,2.13
2023-04-21T06:24:07.653Z,3.53
2023-04-21T06:27:25.845Z,5.07
2023-04-21T06:30:22.209Z,6.10
2023-04-21T06:33:21.957Z,7.13
2023-04-21T06:36:10.071Z,6.90
2023-04-21T06:39:38.364Z,6.37
2023-04-21T06:42:25.080Z,3.60
2023-04-21T06:45:07.735Z,2.73
2023-04-21T06:50:23.169Z,4.00
2023-04-21T06:53:27.710Z,4.77
2023-04-21T06:56:20.045Z,2.60
2023-04-21T06:59:07.363Z,2.40
2023-04-21T07:01:44.011Z,5.00
2023-04-21T07:04:34.187Z,7.43
2023-04-21T07:07:23.729Z,4.40
2023-04-21T07:10:19.864Z,3.20
2023-04-21T07:12:47.461Z,3.30
2023-04-21T07:15:20.506Z,3.30
2023-04-21T07:18:12.431Z,3.97
2023-04-21T07:20:55.702Z,5.07
2023-04-21T07:23:41.933Z,3.27
2023-04-21T07:26:28.001Z,3.20
2023-04-21T07:29:40.881Z,3.63
2023-04-21T07:32:19.669Z,3.07
2023-04-21T07:34:50.446Z,2.50
2023-04-21T07:37:55.641Z,2.40
2023-04-21T07:40:31.072Z,2.87
2023-04-21T07:43:10.958Z,2.20
2023-04-21T07:45:56.882Z,2.70
2023-04-21T07:48:35.695Z,2.00
2023-04-21T07:51:47.263Z,2.40
2023-04-21T07:54:38.326Z,3.70
2023-04-21T07:57:44.083Z,2.60
2023-04-21T08:00:35.041Z,2.53
2023-04-21T08:03:15.172Z,2.50
2023-04-21T08:09:35.314Z,2.63
2023-04-21T08:12:39.610Z,2.63
2023-04-21T08:15:13.474Z,2.53
2023-04-21T08:17:53.522Z,2.13
2023-04-21T08:20:35.474Z,2.50
2023-04-21T08:23:23.726Z,1.90
2023-04-21T08:25:58.497Z,1.93
2023-04-21T08:29:00.694Z,1.70
2023-04-21T08:31:30.639Z,1.70
2023-04-21T08:34:02.426Z,2.40
2023-04-21T08:36:32.408Z,1.70
2023-04-21T08:39:00.768Z,1.80
2023-04-21T08:41:29.611Z,2.10
2023-04-21T08:43:57.902Z,2.03
2023-04-21T08:46:26.553Z,1.93
2023-04-21T08:48:55.616Z,2.00
2023-04-21T08:51:24.985Z,1.70
2023-04-21T08:53:55.751Z,1.50
2023-04-21T08:56:26.052Z,1.77
2023-04-21T08:58:56.190Z,3.13
2023-04-21T09:01:23.748Z,1.60
2023-04-21T09:03:54.225Z,1.60
2023-04-21T09:06:24.295Z,1.70
2023-04-21T09:08:57.190Z,1.43
2023-04-21T09:11:33.845Z,1.50
2023-04-21T09:14:03.651Z,1.73
2023-04-21T09:16:33.898Z,1.57
2023-04-21T09:19:01.801Z,1.40
2023-04-21T09:21:31.954Z,1.40
2023-04-21T09:24:01.629Z,1.87
2023-04-21T09:26:29.510Z,2.27
2023-04-21T09:28:58.084Z,1.90
2023-04-21T09:31:26.100Z,2.03
2023-04-21T09:36:43.470Z,1.80
2023-04-21T09:40:04.157Z,1.90
2023-04-21T09:42:36.324Z,2.30
2023-04-21T09:48:06.855Z,1.83
2023-04-21T09:51:07.529Z,1.53
2023-04-21T09:53:28.396Z,1.80
2023-04-21T09:55:57.249Z,1.77
2023-04-21T09:58:36.651Z,1.70
2023-04-21T10:01:05.266Z,2.00
2023-04-21T10:03:34.192Z,1.50
2023-04-21T10:06:16.706Z,1.53
2023-04-21T10:09:25.051Z,2.07
2023-04-21T10:12:24.932Z,1.83
2023-04-21T10:15:05.637Z,1.43
2023-04-21T10:17:41.508Z,0.90
2023-04-21T10:20:11.813Z,1.27
2023-04-21T10:22:40.571Z,1.43
2023-04-21T10:25:11.080Z,1.70
2023-04-21T10:27:41.269Z,1.07
2023-04-21T10:30:29.290Z,1.60
2023-04-21T10:33:06.189Z,1.10
2023-04-21T10:40:10.649Z,1.87
2023-04-21T10:43:06.830Z,1.90
2023-04-21T10:54:23.553Z,1.23
2023-04-21T10:56:54.997Z,1.43
2023-04-21T11:03:10.540Z,1.73
2023-04-21T11:05:45.128Z,1.33
2023-04-21T11:12:40.451Z,1.57
2023-04-21T11:15:18.794Z,1.00
2023-04-21T11:18:01.635Z,1.33
2023-04-21T11:26:46.788Z,1.23
2023-04-21T11:47:18.860Z,1.33
2023-04-21T12:09:48.712Z,2.50
2023-04-21T12:17:02.802Z,1.10
2023-04-21T12:22:32.139Z,1.40
2023-04-21T12:24:59.815Z,1.50
2023-04-21T12:28:07.652Z,1.60
2023-04-21T12:30:44.608Z,1.17
2023-04-21T12:33:44.988Z,1.50
2023-04-21T12:36:35.963Z,0.97
2023-04-21T12:39:07.020Z,1.13
2023-04-21T12:41:57.382Z,1.60
2023-04-21T12:44:36.184Z,1.30
2023-04-21T12:47:18.872Z,1.27
2023-04-21T12:49:47.565Z,0.73
2023-04-21T12:52:15.344Z,0.80
2023-04-21T12:54:43.458Z,1.30
2023-04-21T12:57:11.138Z,1.03
2023-04-21T12:59:38.607Z,1.10
2023-04-21T13:02:06.266Z,1.57
2023-04-21T13:04:34.281Z,1.37
2023-04-21T13:07:01.820Z,1.20
2023-04-21T13:09:29.627Z,1.47
2023-04-21T13:11:57.498Z,1.07
2023-04-21T13:14:25.137Z,1.03
2023-04-21T13:16:53.442Z,1.40
2023-04-21T13:19:23.337Z,1.80
2023-04-21T13:21:53.431Z,2.00
2023-04-21T13:25:08.405Z,1.73
2023-04-21T13:27:39.219Z,1.27
2023-04-21T13:30:12.234Z,1.60
2023-04-21T13:32:40.092Z,1.17
2023-04-21T13:35:11.493Z,1.40
2023-04-21T13:37:40.777Z,2.33
2023-04-21T13:55:35.941Z,1.77
2023-04-21T13:58:03.763Z,1.70
2023-04-21T14:00:40.914Z,1.50
2023-04-21T23:09:52.072Z,1.00
